sensor_id;sensor_type;location;lat;lon;timestamp;P1;durP1;ratioP1;P2;durP2;ratioP2
73266;SDS011;61495;53.400;7.608;2023-01-01T00:01:22;18.63;;;9.70;;
73266;SDS011;61495;53.400;7.608;2023-01-01T00:03:49;21.58;;;8.15;;
73266;SDS011;61495;53.400;7.608;2023-01-01T00:06:16;21.30;;;9.90;;
73266;SDS011;61495;53.400;7.608;2023-01-01T00:08:42;17.67;;;7.72;;
73266;SDS011;61495;53.400;7.608;2023-01-01T00:11:08;14.07;;;7.88;;
73266;SDS011;61495;53.400;7.608;2023-01-01T00:13:35;15.73;;;7.68;;
73266;SDS011;61495;53.400;7.608;2023-01-01T00:16:02;14.60;;;6.63;;
73266;SDS011;61495;53.400;7.608;2023-01-01T00:18:32;15.32;;;7.43;;
73266;SDS011;61495;53.400;7.608;2023-01-01T00:21:16;21.85;;;9.18;;
73266;SDS011;61495;53.400;7.608;2023-01-01T00:23:42;16.23;;;8.13;;
73266;SDS011;61495;53.400;7.608;2023-01-01T00:26:11;20.88;;;9.55;;
73266;SDS011;61495;53.400;7.608;2023-01-01T00:28:39;17.65;;;9.30;;
73266;SDS011;61495;53.400;7.608;2023-01-01T00:31:08;14.52;;;8.82;;
73266;SDS011;61495;53.400;7.608;2023-01-01T00:33:35;18.75;;;7.57;;
73266;SDS011;61495;53.400;7.608;2023-01-01T00:36:05;15.65;;;7.75;;
73266;SDS011;61495;53.400;7.608;2023-01-01T00:38:32;14.75;;;7.35;;
73266;SDS011;61495;53.400;7.608;2023-01-01T00:40:57;16.83;;;7.97;;
73266;SDS011;61495;53.400;7.608;2023-01-01T00:43:23;23.65;;;9.75;;
73266;SDS011;61495;53.400;7.608;2023-01-01T00:45:49;20.90;;;8.68;;
73266;SDS011;61495;53.400;7.608;2023-01-01T00:48:17;18.25;;;10.50;;
73266;SDS011;61495;53.400;7.608;2023-01-01T00:50:48;18.02;;;8.68;;
73266;SDS011;61495;53.400;7.608;2023-01-01T00:53:17;17.90;;;9.50;;
73266;SDS011;61495;53.400;7.608;2023-01-01T00:55:44;17.25;;;8.48;;
73266;SDS011;61495;53.400;7.608;2023-01-01T00:58:12;20.23;;;9.35;;
73266;SDS011;61495;53.400;7.608;2023-01-01T01:00:38;16.23;;;8.40;;
73266;SDS011;61495;53.400;7.608;2023-01-01T01:03:04;17.33;;;10.02;;
73266;SDS011;61495;53.400;7.608;2023-01-01T01:05:30;21.83;;;10.50;;
73266;SDS011;61495;53.400;7.608;2023-01-01T01:07:57;20.75;;;10.43;;
73266;SDS011;61495;53.400;7.608;2023-01-01T01:10:23;17.08;;;8.90;;
73266;SDS011;61495;53.400;7.608;2023-01-01T01:12:50;16.92;;;9.60;;
73266;SDS011;61495;53.400;7.608;2023-01-01T01:15:16;20.73;;;11.57;;
73266;SDS011;61495;53.400;7.608;2023-01-01T01:17:42;16.17;;;9.20;;
73266;SDS011;61495;53.400;7.608;2023-01-01T01:20:08;20.95;;;10.45;;
73266;SDS011;61495;53.400;7.608;2023-01-01T01:22:34;22.00;;;12.25;;
73266;SDS011;61495;53.400;7.608;2023-01-01T01:24:59;18.27;;;8.95;;
73266;SDS011;61495;53.400;7.608;2023-01-01T01:27:25;24.50;;;10.02;;
73266;SDS011;61495;53.400;7.608;2023-01-01T01:29:51;17.27;;;9.15;;
73266;SDS011;61495;53.400;7.608;2023-01-01T01:32:17;18.23;;;10.52;;
73266;SDS011;61495;53.400;7.608;2023-01-01T01:34:43;18.42;;;10.48;;
73266;SDS011;61495;53.400;7.608;2023-01-01T01:37:09;18.73;;;10.15;;
73266;SDS011;61495;53.400;7.608;2023-01-01T01:39:35;19.63;;;9.82;;
73266;SDS011;61495;53.400;7.608;2023-01-01T01:42:01;18.75;;;9.25;;
73266;SDS011;61495;53.400;7.608;2023-01-01T01:47:16;16.30;;;9.55;;
73266;SDS011;61495;53.400;7.608;2023-01-01T01:49:46;17.27;;;9.73;;
73266;SDS011;61495;53.400;7.608;2023-01-01T01:52:13;18.83;;;9.75;;
73266;SDS011;61495;53.400;7.608;2023-01-01T01:54:39;18.55;;;10.70;;
73266;SDS011;61495;53.400;7.608;2023-01-01T01:57:07;21.85;;;11.85;;
73266;SDS011;61495;53.400;7.608;2023-01-01T01:59:36;25.92;;;12.82;;
73266;SDS011;61495;53.400;7.608;2023-01-01T02:02:06;22.75;;;10.20;;
73266;SDS011;61495;53.400;7.608;2023-01-01T02:04:39;20.73;;;11.52;;
73266;SDS011;61495;53.400;7.608;2023-01-01T02:07:05;20.75;;;10.82;;
73266;SDS011;61495;53.400;7.608;2023-01-01T02:09:31;23.98;;;11.13;;
73266;SDS011;61495;53.400;7.608;2023-01-01T02:11:57;19.15;;;11.15;;
73266;SDS011;61495;53.400;7.608;2023-01-01T02:14:23;21.00;;;10.55;;
73266;SDS011;61495;53.400;7.608;2023-01-01T02:16:51;16.58;;;10.75;;
73266;SDS011;61495;53.400;7.608;2023-01-01T02:22:45;23.67;;;11.82;;
73266;SDS011;61495;53.400;7.608;2023-01-01T02:31:27;19.83;;;10.80;;
73266;SDS011;61495;53.400;7.608;2023-01-01T02:33:59;20.80;;;12.80;;
73266;SDS011;61495;53.400;7.608;2023-01-01T02:36:28;22.27;;;11.57;;
73266;SDS011;61495;53.400;7.608;2023-01-01T02:38:58;23.63;;;12.57;;
73266;SDS011;61495;53.400;7.608;2023-01-01T02:41:27;23.30;;;10.75;;
73266;SDS011;61495;53.400;7.608;2023-01-01T02:44:05;21.23;;;10.88;;
73266;SDS011;61495;53.400;7.608;2023-01-01T02:46:31;22.38;;;10.80;;
73266;SDS011;61495;53.400;7.608;2023-01-01T02:48:59;18.20;;;10.48;;
73266;SDS011;61495;53.400;7.608;2023-01-01T02:57:03;18.23;;;10.07;;
73266;SDS011;61495;53.400;7.608;2023-01-01T03:09:08;20.63;;;11.48;;
73266;SDS011;61495;53.400;7.608;2023-01-01T03:11:49;20.67;;;11.27;;
73266;SDS011;61495;53.400;7.608;2023-01-01T03:14:41;21.98;;;10.35;;
73266;SDS011;61495;53.400;7.608;2023-01-01T03:19:49;22.88;;;11.85;;
73266;SDS011;61495;53.400;7.608;2023-01-01T03:22:16;19.73;;;10.02;;
73266;SDS011;61495;53.400;7.608;2023-01-01T03:25:06;20.02;;;11.38;;
73266;SDS011;61495;53.400;7.608;2023-01-01T03:27:43;26.98;;;12.20;;
73266;SDS011;61495;53.400;7.608;2023-01-01T03:30:12;21.13;;;10.63;;
73266;SDS011;61495;53.400;7.608;2023-01-01T03:32:54;23.73;;;10.50;;
73266;SDS011;61495;53.400;7.608;2023-01-01T03:35:36;20.27;;;10.25;;
73266;SDS011;61495;53.400;7.608;2023-01-01T03:38:10;25.23;;;10.68;;
73266;SDS011;61495;53.400;7.608;2023-01-01T03:40:41;18.80;;;10.75;;
73266;SDS011;61495;53.400;7.608;2023-01-01T03:43:11;21.67;;;10.70;;
73266;SDS011;61495;53.400;7.608;2023-01-01T03:45:42;19.95;;;10.98;;
73266;SDS011;61495;53.400;7.608;2023-01-01T03:48:10;18.70;;;9.43;;
73266;SDS011;61495;53.400;7.608;2023-01-01T03:53:48;20.20;;;11.10;;
73266;SDS011;61495;53.400;7.608;2023-01-01T03:56:18;20.65;;;11.15;;
73266;SDS011;61495;53.400;7.608;2023-01-01T03:58:59;23.55;;;11.18;;
73266;SDS011;61495;53.400;7.608;2023-01-01T04:01:44;22.52;;;11.15;;
73266;SDS011;61495;53.400;7.608;2023-01-01T04:04:13;19.30;;;9.52;;
73266;SDS011;61495;53.400;7.608;2023-01-01T04:06:40;16.10;;;9.30;;
73266;SDS011;61495;53.400;7.608;2023-01-01T04:09:08;19.63;;;8.73;;
73266;SDS011;61495;53.400;7.608;2023-01-01T04:11:41;17.08;;;8.57;;
73266;SDS011;61495;53.400;7.608;2023-01-01T04:14:35;15.52;;;9.18;;
73266;SDS011;61495;53.400;7.608;2023-01-01T04:19:29;18.17;;;6.50;;
73266;SDS011;61495;53.400;7.608;2023-01-01T04:21:55;17.08;;;6.47;;
73266;SDS011;61495;53.400;7.608;2023-01-01T04:24:30;14.45;;;6.43;;
73266;SDS011;61495;53.400;7.608;2023-01-01T04:27:28;14.32;;;8.10;;
73266;SDS011;61495;53.400;7.608;2023-01-01T04:30:15;16.33;;;6.97;;
73266;SDS011;61495;53.400;7.608;2023-01-01T04:32:54;12.70;;;6.72;;
73266;SDS011;61495;53.400;7.608;2023-01-01T04:35:25;15.60;;;6.68;;
73266;SDS011;61495;53.400;7.608;2023-01-01T04:37:56;16.23;;;7.47;;
73266;SDS011;61495;53.400;7.608;2023-01-01T04:40:42;15.15;;;6.93;;
73266;SDS011;61495;53.400;7.608;2023-01-01T04:46:39;10.70;;;5.68;;
73266;SDS011;61495;53.400;7.608;2023-01-01T04:49:51;14.23;;;5.38;;
73266;SDS011;61495;53.400;7.608;2023-01-01T04:52:20;12.63;;;4.78;;
73266;SDS011;61495;53.400;7.608;2023-01-01T04:54:58;8.88;;;4.45;;
73266;SDS011;61495;53.400;7.608;2023-01-01T04:57:33;10.00;;;4.38;;
73266;SDS011;61495;53.400;7.608;2023-01-01T04:59:59;10.55;;;4.60;;
73266;SDS011;61495;53.400;7.608;2023-01-01T05:02:25;13.88;;;4.75;;
73266;SDS011;61495;53.400;7.608;2023-01-01T05:04:51;11.93;;;4.22;;
73266;SDS011;61495;53.400;7.608;2023-01-01T05:07:16;10.43;;;4.25;;
73266;SDS011;61495;53.400;7.608;2023-01-01T05:09:42;11.52;;;4.40;;
73266;SDS011;61495;53.400;7.608;2023-01-01T05:12:08;10.20;;;4.45;;
73266;SDS011;61495;53.400;7.608;2023-01-01T05:14:34;16.80;;;5.57;;
73266;SDS011;61495;53.400;7.608;2023-01-01T05:16:59;9.77;;;5.00;;
73266;SDS011;61495;53.400;7.608;2023-01-01T05:19:43;12.10;;;4.65;;
73266;SDS011;61495;53.400;7.608;2023-01-01T05:22:09;13.98;;;5.10;;
73266;SDS011;61495;53.400;7.608;2023-01-01T05:24:35;8.73;;;4.90;;
73266;SDS011;61495;53.400;7.608;2023-01-01T05:27:01;9.88;;;4.30;;
73266;SDS011;61495;53.400;7.608;2023-01-01T05:29:27;9.60;;;4.10;;
73266;SDS011;61495;53.400;7.608;2023-01-01T05:31:52;13.63;;;4.97;;
73266;SDS011;61495;53.400;7.608;2023-01-01T05:34:18;14.43;;;4.35;;
73266;SDS011;61495;53.400;7.608;2023-01-01T05:36:44;11.32;;;5.32;;
73266;SDS011;61495;53.400;7.608;2023-01-01T05:39:10;12.18;;;4.43;;
73266;SDS011;61495;53.400;7.608;2023-01-01T05:41:36;11.65;;;4.65;;
73266;SDS011;61495;53.400;7.608;2023-01-01T05:44:03;10.05;;;3.55;;
73266;SDS011;61495;53.400;7.608;2023-01-01T05:46:30;12.43;;;3.55;;
73266;SDS011;61495;53.400;7.608;2023-01-01T05:48:56;8.75;;;3.63;;
73266;SDS011;61495;53.400;7.608;2023-01-01T05:54:25;10.02;;;3.97;;
73266;SDS011;61495;53.400;7.608;2023-01-01T05:56:50;8.35;;;3.53;;
73266;SDS011;61495;53.400;7.608;2023-01-01T05:59:16;11.68;;;2.90;;
73266;SDS011;61495;53.400;7.608;2023-01-01T06:01:42;8.13;;;3.65;;
73266;SDS011;61495;53.400;7.608;2023-01-01T06:04:08;8.57;;;2.22;;
73266;SDS011;61495;53.400;7.608;2023-01-01T06:06:33;10.55;;;2.38;;
73266;SDS011;61495;53.400;7.608;2023-01-01T06:09:00;6.90;;;3.03;;
73266;SDS011;61495;53.400;7.608;2023-01-01T06:11:28;8.15;;;2.53;;
73266;SDS011;61495;53.400;7.608;2023-01-01T06:13:56;9.23;;;2.95;;
73266;SDS011;61495;53.400;7.608;2023-01-01T06:16:23;6.93;;;2.20;;
73266;SDS011;61495;53.400;7.608;2023-01-01T06:18:50;7.10;;;2.13;;
73266;SDS011;61495;53.400;7.608;2023-01-01T06:21:20;9.55;;;2.50;;
73266;SDS011;61495;53.400;7.608;2023-01-01T06:23:48;8.98;;;3.25;;
73266;SDS011;61495;53.400;7.608;2023-01-01T06:26:17;6.57;;;2.00;;
73266;SDS011;61495;53.400;7.608;2023-01-01T06:28:44;5.35;;;2.45;;
73266;SDS011;61495;53.400;7.608;2023-01-01T06:31:11;7.60;;;2.72;;
73266;SDS011;61495;53.400;7.608;2023-01-01T06:33:39;4.65;;;1.30;;
73266;SDS011;61495;53.400;7.608;2023-01-01T06:36:06;4.43;;;1.55;;
73266;SDS011;61495;53.400;7.608;2023-01-01T06:38:34;8.63;;;2.85;;
73266;SDS011;61495;53.400;7.608;2023-01-01T06:41:02;7.03;;;1.55;;
73266;SDS011;61495;53.400;7.608;2023-01-01T06:43:30;5.22;;;1.80;;
73266;SDS011;61495;53.400;7.608;2023-01-01T06:45:58;5.47;;;1.50;;
73266;SDS011;61495;53.400;7.608;2023-01-01T06:48:39;7.90;;;2.17;;
73266;SDS011;61495;53.400;7.608;2023-01-01T06:51:24;6.53;;;1.48;;
73266;SDS011;61495;53.400;7.608;2023-01-01T06:53:52;5.30;;;2.13;;
73266;SDS011;61495;53.400;7.608;2023-01-01T06:56:19;4.22;;;1.80;;
73266;SDS011;61495;53.400;7.608;2023-01-01T06:58:45;4.68;;;1.60;;
73266;SDS011;61495;53.400;7.608;2023-01-01T07:01:12;4.95;;;1.60;;
73266;SDS011;61495;53.400;7.608;2023-01-01T07:03:42;8.77;;;2.60;;
73266;SDS011;61495;53.400;7.608;2023-01-01T07:06:09;5.68;;;1.17;;
73266;SDS011;61495;53.400;7.608;2023-01-01T07:08:35;5.50;;;1.15;;
73266;SDS011;61495;53.400;7.608;2023-01-01T07:11:01;5.97;;;1.33;;
73266;SDS011;61495;53.400;7.608;2023-01-01T07:13:27;3.20;;;1.23;;
73266;SDS011;61495;53.400;7.608;2023-01-01T07:15:54;6.38;;;1.13;;
73266;SDS011;61495;53.400;7.608;2023-01-01T07:18:21;4.75;;;1.25;;
73266;SDS011;61495;53.400;7.608;2023-01-01T07:21:00;4.55;;;1.95;;
73266;SDS011;61495;53.400;7.608;2023-01-01T07:23:28;5.07;;;0.98;;
73266;SDS011;61495;53.400;7.608;2023-01-01T07:25:55;6.32;;;1.20;;
73266;SDS011;61495;53.400;7.608;2023-01-01T07:28:22;3.13;;;1.30;;
73266;SDS011;61495;53.400;7.608;2023-01-01T07:30:48;5.63;;;1.58;;
73266;SDS011;61495;53.400;7.608;2023-01-01T07:33:15;10.23;;;1.48;;
73266;SDS011;61495;53.400;7.608;2023-01-01T07:35:43;3.90;;;1.30;;
73266;SDS011;61495;53.400;7.608;2023-01-01T07:38:09;9.27;;;2.03;;
73266;SDS011;61495;53.400;7.608;2023-01-01T07:40:35;7.25;;;1.35;;
73266;SDS011;61495;53.400;7.608;2023-01-01T07:43:01;4.57;;;1.08;;
73266;SDS011;61495;53.400;7.608;2023-01-01T07:45:27;3.55;;;1.10;;
73266;SDS011;61495;53.400;7.608;2023-01-01T07:47:53;7.63;;;2.22;;
73266;SDS011;61495;53.400;7.608;2023-01-01T07:50:32;4.82;;;1.10;;
73266;SDS011;61495;53.400;7.608;2023-01-01T07:52:58;6.45;;;2.05;;
73266;SDS011;61495;53.400;7.608;2023-01-01T07:55:24;5.22;;;1.15;;
73266;SDS011;61495;53.400;7.608;2023-01-01T07:57:49;3.63;;;0.90;;
73266;SDS011;61495;53.400;7.608;2023-01-01T08:00:17;3.63;;;1.85;;
73266;SDS011;61495;53.400;7.608;2023-01-01T08:02:43;4.07;;;1.35;;
73266;SDS011;61495;53.400;7.608;2023-01-01T08:05:10;3.70;;;1.23;;
73266;SDS011;61495;53.400;7.608;2023-01-01T08:07:36;6.53;;;1.40;;
73266;SDS011;61495;53.400;7.608;2023-01-01T08:10:02;6.28;;;1.20;;
73266;SDS011;61495;53.400;7.608;2023-01-01T08:12:29;3.80;;;0.95;;
73266;SDS011;61495;53.400;7.608;2023-01-01T08:14:55;4.00;;;0.80;;
73266;SDS011;61495;53.400;7.608;2023-01-01T08:17:20;5.53;;;1.20;;
73266;SDS011;61495;53.400;7.608;2023-01-01T08:19:52;3.70;;;1.00;;
73266;SDS011;61495;53.400;7.608;2023-01-01T08:22:18;6.20;;;1.30;;
73266;SDS011;61495;53.400;7.608;2023-01-01T08:24:44;4.85;;;1.30;;
73266;SDS011;61495;53.400;7.608;2023-01-01T08:27:13;6.15;;;0.88;;
73266;SDS011;61495;53.400;7.608;2023-01-01T08:29:40;8.75;;;1.52;;
73266;SDS011;61495;53.400;7.608;2023-01-01T08:32:06;3.20;;;0.77;;
73266;SDS011;61495;53.400;7.608;2023-01-01T08:34:32;7.95;;;1.30;;
73266;SDS011;61495;53.400;7.608;2023-01-01T08:36:58;4.63;;;1.45;;
73266;SDS011;61495;53.400;7.608;2023-01-01T08:39:24;6.07;;;1.13;;
73266;SDS011;61495;53.400;7.608;2023-01-01T08:41:50;6.07;;;1.10;;
73266;SDS011;61495;53.400;7.608;2023-01-01T08:44:15;6.20;;;1.38;;
73266;SDS011;61495;53.400;7.608;2023-01-01T08:46:41;6.07;;;1.00;;
73266;SDS011;61495;53.400;7.608;2023-01-01T08:49:07;10.65;;;1.52;;
73266;SDS011;61495;53.400;7.608;2023-01-01T08:51:39;4.60;;;1.30;;
73266;SDS011;61495;53.400;7.608;2023-01-01T08:54:05;5.53;;;1.15;;
73266;SDS011;61495;53.400;7.608;2023-01-01T08:56:31;7.40;;;1.88;;
73266;SDS011;61495;53.400;7.608;2023-01-01T08:58:56;6.25;;;1.23;;
73266;SDS011;61495;53.400;7.608;2023-01-01T09:01:22;6.85;;;1.50;;
73266;SDS011;61495;53.400;7.608;2023-01-01T09:03:51;6.18;;;1.20;;
73266;SDS011;61495;53.400;7.608;2023-01-01T09:06:17;8.52;;;1.40;;
73266;SDS011;61495;53.400;7.608;2023-01-01T09:08:43;4.97;;;1.10;;
73266;SDS011;61495;53.400;7.608;2023-01-01T09:11:22;9.05;;;1.80;;
73266;SDS011;61495;53.400;7.608;2023-01-01T09:13:49;8.23;;;1.48;;
73266;SDS011;61495;53.400;7.608;2023-01-01T09:16:15;5.35;;;1.38;;
73266;SDS011;61495;53.400;7.608;2023-01-01T09:18:41;8.68;;;1.77;;
73266;SDS011;61495;53.400;7.608;2023-01-01T09:21:10;7.35;;;1.73;;
73266;SDS011;61495;53.400;7.608;2023-01-01T09:23:35;8.43;;;1.60;;
73266;SDS011;61495;53.400;7.608;2023-01-01T09:26:05;10.32;;;3.45;;
73266;SDS011;61495;53.400;7.608;2023-01-01T09:28:32;9.73;;;2.83;;
73266;SDS011;61495;53.400;7.608;2023-01-01T09:30:59;6.47;;;1.65;;
73266;SDS011;61495;53.400;7.608;2023-01-01T09:33:25;9.93;;;3.38;;
73266;SDS011;61495;53.400;7.608;2023-01-01T09:35:51;11.40;;;1.90;;
73266;SDS011;61495;53.400;7.608;2023-01-01T09:38:17;5.55;;;1.85;;
73266;SDS011;61495;53.400;7.608;2023-01-01T09:45:57;8.25;;;1.98;;
73266;SDS011;61495;53.400;7.608;2023-01-01T09:48:25;7.72;;;1.35;;
73266;SDS011;61495;53.400;7.608;2023-01-01T09:50:54;7.70;;;1.30;;
73266;SDS011;61495;53.400;7.608;2023-01-01T09:53:22;14.00;;;2.20;;
73266;SDS011;61495;53.400;7.608;2023-01-01T09:56:02;9.90;;;1.90;;
73266;SDS011;61495;53.400;7.608;2023-01-01T09:58:33;9.40;;;2.00;;
73266;SDS011;61495;53.400;7.608;2023-01-01T10:01:19;4.60;;;1.45;;
73266;SDS011;61495;53.400;7.608;2023-01-01T10:09:53;5.45;;;1.27;;
73266;SDS011;61495;53.400;7.608;2023-01-01T10:12:32;6.30;;;1.77;;
73266;SDS011;61495;53.400;7.608;2023-01-01T10:15:15;9.13;;;2.08;;
73266;SDS011;61495;53.400;7.608;2023-01-01T10:17:56;11.02;;;1.80;;
73266;SDS011;61495;53.400;7.608;2023-01-01T10:20:45;11.75;;;1.95;;
73266;SDS011;61495;53.400;7.608;2023-01-01T10:25:53;3.63;;;1.10;;
73266;SDS011;61495;53.400;7.608;2023-01-01T10:28:26;12.95;;;2.45;;
73266;SDS011;61495;53.400;7.608;2023-01-01T10:30:56;13.80;;;2.00;;
73266;SDS011;61495;53.400;7.608;2023-01-01T10:33:38;9.43;;;1.65;;
73266;SDS011;61495;53.400;7.608;2023-01-01T10:36:04;8.95;;;1.67;;
73266;SDS011;61495;53.400;7.608;2023-01-01T10:38:31;6.22;;;2.33;;
73266;SDS011;61495;53.400;7.608;2023-01-01T10:41:02;10.60;;;2.80;;
73266;SDS011;61495;53.400;7.608;2023-01-01T10:43:32;8.55;;;2.22;;
73266;SDS011;61495;53.400;7.608;2023-01-01T10:45:59;10.60;;;1.23;;
73266;SDS011;61495;53.400;7.608;2023-01-01T10:48:27;7.28;;;1.77;;
73266;SDS011;61495;53.400;7.608;2023-01-01T10:51:02;5.40;;;2.35;;
73266;SDS011;61495;53.400;7.608;2023-01-01T10:56:07;5.30;;;1.38;;
73266;SDS011;61495;53.400;7.608;2023-01-01T10:58:39;6.57;;;1.30;;
73266;SDS011;61495;53.400;7.608;2023-01-01T11:01:06;10.02;;;1.77;;
73266;SDS011;61495;53.400;7.608;2023-01-01T11:03:34;8.45;;;1.48;;
73266;SDS011;61495;53.400;7.608;2023-01-01T11:08:34;8.13;;;1.92;;
73266;SDS011;61495;53.400;7.608;2023-01-01T11:11:03;10.75;;;2.40;;
73266;SDS011;61495;53.400;7.608;2023-01-01T11:13:30;6.80;;;1.98;;
73266;SDS011;61495;53.400;7.608;2023-01-01T11:15:57;7.28;;;1.85;;
73266;SDS011;61495;53.400;7.608;2023-01-01T11:18:30;6.25;;;1.50;;
73266;SDS011;61495;53.400;7.608;2023-01-01T11:21:04;8.65;;;1.65;;
73266;SDS011;61495;53.400;7.608;2023-01-01T11:23:35;9.35;;;1.30;;
73266;SDS011;61495;53.400;7.608;2023-01-01T11:28:36;14.73;;;1.92;;
73266;SDS011;61495;53.400;7.608;2023-01-01T11:33:35;8.25;;;1.23;;
73266;SDS011;61495;53.400;7.608;2023-01-01T11:36:03;7.18;;;1.45;;
73266;SDS011;61495;53.400;7.608;2023-01-01T11:38:30;7.43;;;1.33;;
73266;SDS011;61495;53.400;7.608;2023-01-01T11:41:01;8.23;;;1.95;;
73266;SDS011;61495;53.400;7.608;2023-01-01T11:43:32;9.27;;;1.38;;
73266;SDS011;61495;53.400;7.608;2023-01-01T11:46:05;8.40;;;1.65;;
73266;SDS011;61495;53.400;7.608;2023-01-01T11:48:34;13.18;;;1.63;;
73266;SDS011;61495;53.400;7.608;2023-01-01T11:51:26;7.97;;;1.35;;
73266;SDS011;61495;53.400;7.608;2023-01-01T11:54:30;14.88;;;2.00;;
73266;SDS011;61495;53.400;7.608;2023-01-01T11:57:15;10.82;;;2.08;;
73266;SDS011;61495;53.400;7.608;2023-01-01T11:59:52;8.38;;;1.80;;
73266;SDS011;61495;53.400;7.608;2023-01-01T12:02:47;8.10;;;1.55;;
73266;SDS011;61495;53.400;7.608;2023-01-01T12:07:39;9.07;;;2.35;;
73266;SDS011;61495;53.400;7.608;2023-01-01T12:10:24;9.75;;;2.15;;
73266;SDS011;61495;53.400;7.608;2023-01-01T12:18:34;6.00;;;1.40;;
73266;SDS011;61495;53.400;7.608;2023-01-01T12:24:04;14.57;;;2.25;;
73266;SDS011;61495;53.400;7.608;2023-01-01T12:43:07;8.02;;;1.85;;
73266;SDS011;61495;53.400;7.608;2023-01-01T12:51:23;9.70;;;2.28;;
73266;SDS011;61495;53.400;7.608;2023-01-01T12:59:37;8.68;;;1.73;;
73266;SDS011;61495;53.400;7.608;2023-01-01T13:02:12;14.90;;;2.35;;
73266;SDS011;61495;53.400;7.608;2023-01-01T13:04:42;7.65;;;1.50;;
73266;SDS011;61495;53.400;7.608;2023-01-01T13:07:10;8.10;;;2.00;;
73266;SDS011;61495;53.400;7.608;2023-01-01T13:09:38;9.95;;;1.77;;
73266;SDS011;61495;53.400;7.608;2023-01-01T13:14:46;10.52;;;2.50;;
73266;SDS011;61495;53.400;7.608;2023-01-01T13:17:23;8.32;;;1.65;;
73266;SDS011;61495;53.400;7.608;2023-01-01T13:22:47;9.48;;;2.05;;
73266;SDS011;61495;53.400;7.608;2023-01-01T13:38:45;7.80;;;1.20;;
73266;SDS011;61495;53.400;7.608;2023-01-01T13:46:29;9.13;;;1.92;;
73266;SDS011;61495;53.400;7.608;2023-01-01T13:55:26;8.85;;;1.83;;
73266;SDS011;61495;53.400;7.608;2023-01-01T13:58:20;8.27;;;1.40;;
73266;SDS011;61495;53.400;7.608;2023-01-01T14:01:18;9.45;;;2.05;;
73266;SDS011;61495;53.400;7.608;2023-01-01T14:03:51;7.57;;;1.88;;
73266;SDS011;61495;53.400;7.608;2023-01-01T14:11:33;5.80;;;1.60;;
73266;SDS011;61495;53.400;7.608;2023-01-01T14:13:59;9.52;;;1.83;;
73266;SDS011;61495;53.400;7.608;2023-01-01T14:16:25;14.20;;;2.08;;
73266;SDS011;61495;53.400;7.608;2023-01-01T14:18:52;6.45;;;2.30;;
73266;SDS011;61495;53.400;7.608;2023-01-01T14:21:26;5.90;;;1.45;;
73266;SDS011;61495;53.400;7.608;2023-01-01T14:23:56;9.52;;;1.52;;
73266;SDS011;61495;53.400;7.608;2023-01-01T14:26:26;8.18;;;2.00;;
73266;SDS011;61495;53.400;7.608;2023-01-01T14:28:54;7.55;;;1.73;;
73266;SDS011;61495;53.400;7.608;2023-01-01T14:31:23;8.52;;;1.92;;
73266;SDS011;61495;53.400;7.608;2023-01-01T14:33:56;9.95;;;1.65;;
73266;SDS011;61495;53.400;7.608;2023-01-01T14:36:23;8.45;;;1.88;;
73266;SDS011;61495;53.400;7.608;2023-01-01T14:38:56;8.10;;;2.15;;
73266;SDS011;61495;53.400;7.608;2023-01-01T14:41:28;7.63;;;1.73;;
73266;SDS011;61495;53.400;7.608;2023-01-01T14:46:28;7.20;;;1.75;;
73266;SDS011;61495;53.400;7.608;2023-01-01T14:48:55;10.20;;;1.65;;
73266;SDS011;61495;53.400;7.608;2023-01-01T14:51:28;7.03;;;1.80;;
73266;SDS011;61495;53.400;7.608;2023-01-01T14:53:57;12.50;;;2.00;;
73266;SDS011;61495;53.400;7.608;2023-01-01T15:01:36;7.53;;;2.38;;
73266;SDS011;61495;53.400;7.608;2023-01-01T15:04:05;10.82;;;2.03;;
73266;SDS011;61495;53.400;7.608;2023-01-01T15:06:43;9.23;;;1.60;;
73266;SDS011;61495;53.400;7.608;2023-01-01T15:09:12;6.45;;;2.00;;
73266;SDS011;61495;53.400;7.608;2023-01-01T15:11:40;8.38;;;2.03;;
73266;SDS011;61495;53.400;7.608;2023-01-01T15:14:26;6.35;;;1.75;;
73266;SDS011;61495;53.400;7.608;2023-01-01T15:17:05;9.55;;;2.17;;
73266;SDS011;61495;53.400;7.608;2023-01-01T15:19:42;7.65;;;1.75;;
73266;SDS011;61495;53.400;7.608;2023-01-01T15:22:17;7.97;;;1.95;;
73266;SDS011;61495;53.400;7.608;2023-01-01T15:24:45;9.02;;;2.00;;
73266;SDS011;61495;53.400;7.608;2023-01-01T15:27:24;8.38;;;1.90;;
73266;SDS011;61495;53.400;7.608;2023-01-01T15:29:56;10.43;;;2.05;;
73266;SDS011;61495;53.400;7.608;2023-01-01T15:32:23;7.03;;;2.08;;
73266;SDS011;61495;53.400;7.608;2023-01-01T15:34:52;13.93;;;2.40;;
73266;SDS011;61495;53.400;7.608;2023-01-01T15:39:59;6.72;;;2.70;;
73266;SDS011;61495;53.400;7.608;2023-01-01T15:47:55;10.10;;;2.13;;
73266;SDS011;61495;53.400;7.608;2023-01-01T15:53:30;9.27;;;2.58;;
73266;SDS011;61495;53.400;7.608;2023-01-01T15:56:08;6.78;;;2.20;;
73266;SDS011;61495;53.400;7.608;2023-01-01T15:58:49;9.75;;;2.65;;
73266;SDS011;61495;53.400;7.608;2023-01-01T16:01:21;9.23;;;2.97;;
73266;SDS011;61495;53.400;7.608;2023-01-01T16:03:54;11.80;;;3.38;;
73266;SDS011;61495;53.400;7.608;2023-01-01T16:06:25;17.45;;;3.47;;
73266;SDS011;61495;53.400;7.608;2023-01-01T16:08:51;11.35;;;3.75;;
73266;SDS011;61495;53.400;7.608;2023-01-01T16:11:17;6.75;;;2.58;;
73266;SDS011;61495;53.400;7.608;2023-01-01T16:13:42;8.88;;;2.53;;
73266;SDS011;61495;53.400;7.608;2023-01-01T16:16:29;8.65;;;2.45;;
73266;SDS011;61495;53.400;7.608;2023-01-01T16:18:54;10.05;;;2.58;;
73266;SDS011;61495;53.400;7.608;2023-01-01T16:21:25;8.27;;;2.35;;
73266;SDS011;61495;53.400;7.608;2023-01-01T16:23:52;7.95;;;2.88;;
73266;SDS011;61495;53.400;7.608;2023-01-01T16:26:18;8.57;;;2.38;;
73266;SDS011;61495;53.400;7.608;2023-01-01T16:28:44;10.75;;;2.67;;
73266;SDS011;61495;53.400;7.608;2023-01-01T16:31:14;17.42;;;3.17;;
73266;SDS011;61495;53.400;7.608;2023-01-01T16:33:41;11.07;;;2.53;;
73266;SDS011;61495;53.400;7.608;2023-01-01T16:36:12;8.35;;;2.88;;
73266;SDS011;61495;53.400;7.608;2023-01-01T16:38:38;9.02;;;3.08;;
73266;SDS011;61495;53.400;7.608;2023-01-01T16:41:03;12.23;;;2.80;;
73266;SDS011;61495;53.400;7.608;2023-01-01T16:43:29;10.23;;;3.25;;
73266;SDS011;61495;53.400;7.608;2023-01-01T16:45:55;10.73;;;2.97;;
73266;SDS011;61495;53.400;7.608;2023-01-01T16:48:21;11.63;;;3.40;;
73266;SDS011;61495;53.400;7.608;2023-01-01T16:50:49;10.73;;;2.75;;
73266;SDS011;61495;53.400;7.608;2023-01-01T16:53:16;11.45;;;2.85;;
73266;SDS011;61495;53.400;7.608;2023-01-01T16:55:41;8.70;;;3.08;;
73266;SDS011;61495;53.400;7.608;2023-01-01T16:58:07;11.10;;;3.38;;
73266;SDS011;61495;53.400;7.608;2023-01-01T17:00:33;10.23;;;3.42;;
73266;SDS011;61495;53.400;7.608;2023-01-01T17:02:58;7.97;;;2.35;;
73266;SDS011;61495;53.400;7.608;2023-01-01T17:05:24;11.07;;;3.42;;
73266;SDS011;61495;53.400;7.608;2023-01-01T17:07:50;6.50;;;2.33;;
73266;SDS011;61495;53.400;7.608;2023-01-01T17:10:16;7.82;;;3.05;;
73266;SDS011;61495;53.400;7.608;2023-01-01T17:12:42;10.32;;;2.78;;
73266;SDS011;61495;53.400;7.608;2023-01-01T17:15:08;12.50;;;2.90;;
73266;SDS011;61495;53.400;7.608;2023-01-01T17:17:34;9.23;;;3.53;;
73266;SDS011;61495;53.400;7.608;2023-01-01T17:19:59;11.63;;;3.13;;
73266;SDS011;61495;53.400;7.608;2023-01-01T17:22:25;7.40;;;2.30;;
73266;SDS011;61495;53.400;7.608;2023-01-01T17:24:51;11.98;;;3.05;;
73266;SDS011;61495;53.400;7.608;2023-01-01T17:27:16;8.75;;;2.95;;
73266;SDS011;61495;53.400;7.608;2023-01-01T17:29:42;7.82;;;2.67;;
73266;SDS011;61495;53.400;7.608;2023-01-01T17:32:08;8.40;;;2.42;;
73266;SDS011;61495;53.400;7.608;2023-01-01T17:34:33;9.50;;;3.03;;
73266;SDS011;61495;53.400;7.608;2023-01-01T17:36:59;10.73;;;3.33;;